Berlin Alexanderplatz, Germany

7:50 AM CEST on August 30, 2015 (GMT +0200)
Berolinastr., Berlin-Mitte | | Change Station
CLOSE
Current Station
Personal Weather Station
Location: Berlin, BERLIN
Elevation: 125 ft
Nearby Weather Stations

Elev 125 ft 52.52 °N, 13.42 °E | Updated 35 seconds ago

Clear
Clear
61.7 °F
Feels Like 61.7 °F
N
0.0
Wind Variable Wind from NNW

Today
High -- | Low -- °F
--% Chance of Precip.
Yesterday
High -- | Low -- °F
Precip. -- in
6:13 AM 7:59 PM
Full, 100% visible
Pressure 30.12 in
Visibility -9999.0 miles
Clouds
Dew Point 53 °F
Humidity 72%
Rainfall 0.00 in
Snow Depth Not available.
UV Not available.
Pollen Not available.
Air Quality Not available.
Flu Activity Not available.
METAR EDDT 300520Z VRB02KT CAVOK 16/12 Q1020 NOSIG
Pressure 30.12 in
Visibility -9999.0 miles
Clouds
Dew Point 53 °F
Humidity 72%
Rainfall 0.00 in
Snow Depth Not available.
UV Not available.
Pollen Not available.
Air Quality Not available.
Flu Activity Not available.
METAR EDDT 300520Z VRB02KT CAVOK 16/12 Q1020 NOSIG

10-Day Weather Forecast

×

Almanac

Astronomy

Aug. 30, 2015 Rise Set
Actual Time
Civil Twilight
Nautical Twilight
Astronomical Twilight
Moon
Length of Visible Light
Length of Day
Tomorrow will be .
, % of the Moon is Illuminated

Today's Extremes

Country Highs Country Lows

Community

WunderPhotos

Upload Photos

1,850,896 photos uploaded!

WunderBlogs® & News

Nearby

Air Quality

  Air Quality AQ Index Pollutant
Not available.

Snow Depth

Station Depth Elevation

Earthquake Activity

City Distance Mag. Time & Date
Minimum magnitude displayed is 2.5.

Coastal Water Temperatures

Place Temperature

Stations

Nearby Weather Stations

Station Location Temp. Windchill Dew Point Humidity Wind Precip. Elev Updated Type